Time;durP1;ratioP1;P1;durP2;ratioP2;P2;SDS_P1;SDS_P2;PMS_P1;PMS_P2;Temp;Humidity;BMP_temperature;BMP_pressure;BME280_temperature;BME280_humidity;BME280_pressure;Samples;Min_cycle;Max_cycle;Signal;HPM_P1;HPM_P2
2023/04/10 00:00:06;;;;;;;64.40;46.45;;;7.30;99.90;;;;;;4936919;28;89390;-31
2023/04/10 00:05:27;;;;;;;67.60;45.88;;;7.30;99.90;;;;;;4861639;28;89072;-32
2023/04/10 00:07:53;;;;;;;56.97;45.50;;;7.20;99.90;;;;;;4862627;28;90637;-34
2023/04/10 00:10:19;;;;;;;59.33;44.45;;;7.20;99.90;;;;;;4863374;28;88889;-33
2023/04/10 00:12:45;;;;;;;63.90;47.40;;;7.30;99.90;;;;;;4862812;28;87951;-32
2023/04/10 00:15:10;;;;;;;71.72;51.67;;;7.20;99.90;;;;;;4863197;28;89793;-31
2023/04/10 00:17:36;;;;;;;61.22;45.92;;;7.10;99.90;;;;;;4863282;28;90889;-32
2023/04/10 00:20:03;;;;;;;63.65;49.72;;;7.10;99.90;;;;;;4869531;28;90272;-32
2023/04/10 00:22:29;;;;;;;57.83;48.25;;;7.10;99.90;;;;;;4881216;28;88840;-35
2023/04/10 00:24:54;;;;;;;58.25;45.35;;;7.10;99.90;;;;;;4874368;28;88345;-31
2023/04/10 00:27:20;;;;;;;63.95;49.65;;;7.00;99.90;;;;;;4875009;28;88388;-34
2023/04/10 00:29:46;;;;;;;65.80;52.63;;;7.10;99.90;;;;;;4869976;28;89794;-31
2023/04/10 00:32:12;;;;;;;66.05;52.28;;;7.00;99.90;;;;;;4880910;28;89339;-32
2023/04/10 00:34:37;;;;;;;61.72;52.05;;;7.00;99.90;;;;;;4863271;28;88319;-33
2023/04/10 00:37:03;;;;;;;68.00;51.20;;;7.10;99.90;;;;;;4863582;28;90985;-33
2023/04/10 00:39:28;;;;;;;67.05;52.75;;;7.00;99.90;;;;;;4882036;28;89779;-35
2023/04/10 00:41:54;;;;;;;64.93;50.97;;;7.00;99.90;;;;;;4883763;28;87653;-33
2023/04/10 00:44:20;;;;;;;66.20;50.40;;;6.90;99.90;;;;;;4873010;28;88395;-35
2023/04/10 00:46:45;;;;;;;67.32;49.80;;;7.00;99.90;;;;;;4883530;28;90604;-34
2023/04/10 00:49:11;;;;;;;65.97;51.25;;;6.90;99.90;;;;;;4883780;28;89789;-35
2023/04/10 00:51:37;;;;;;;60.83;49.47;;;6.90;99.90;;;;;;4883203;28;87945;-34
2023/04/10 00:54:03;;;;;;;73.47;52.92;;;6.80;99.90;;;;;;4884092;28;88830;-34
2023/04/10 00:56:31;;;;;;;60.08;50.70;;;6.80;99.90;;;;;;4882754;28;90710;-36
2023/04/10 00:58:56;;;;;;;87.47;52.80;;;6.80;99.90;;;;;;4861648;28;89176;-33
2023/04/10 01:01:22;;;;;;;73.20;53.38;;;6.70;99.90;;;;;;4882898;28;88649;-31
2023/04/10 01:03:48;;;;;;;63.45;50.22;;;6.70;99.90;;;;;;4883168;28;88605;-32
2023/04/10 01:06:40;;;;;;;72.85;57.53;;;6.70;99.90;;;;;;4883706;28;90629;-32
2023/04/10 01:09:06;;;;;;;69.65;53.65;;;6.70;99.90;;;;;;4883793;28;88933;-35
2023/04/10 01:11:47;;;;;;;69.25;54.90;;;6.70;99.90;;;;;;4884244;28;90500;-32
2023/04/10 01:14:29;;;;;;;72.00;56.53;;;6.70;99.90;;;;;;4883590;28;88911;-33
2023/04/10 01:17:10;;;;;;;82.25;59.03;;;6.60;99.90;;;;;;4862906;28;90930;-33
2023/04/10 01:19:47;;;;;;;83.53;57.25;;;6.60;99.90;;;;;;4882176;28;91266;-32
2023/04/10 01:22:16;;;;;;;75.50;55.58;;;6.60;99.90;;;;;;4883998;28;89049;-34
2023/04/10 01:25:00;;;;;;;;;;;6.60;99.90;;;;;;4883800;28;88327;-33
2023/04/10 01:27:42;;;;;;;70.53;52.65;;;6.60;99.90;;;;;;4885647;28;90125;-36
2023/04/10 01:30:13;;;;;;;75.85;57.28;;;6.50;99.90;;;;;;4884549;28;89748;-33
2023/04/10 01:32:40;;;;;;;78.50;56.75;;;6.50;99.90;;;;;;4871951;28;88784;-32
2023/04/10 01:35:07;;;;;;;75.38;58.85;;;6.50;99.90;;;;;;4873849;28;89492;-32
2023/04/10 01:37:39;;;;;;;81.97;57.55;;;6.50;99.90;;;;;;4865049;28;90872;-33
2023/04/10 01:40:09;;;;;;;73.25;59.38;;;6.40;99.90;;;;;;4865400;28;89202;-34
2023/04/10 01:42:42;;;;;;;77.60;61.17;;;6.50;99.90;;;;;;4871299;28;88586;-32
2023/04/10 01:45:14;;;;;;;73.55;58.05;;;6.50;99.90;;;;;;4883344;28;88460;-34
2023/04/10 01:47:41;;;;;;;81.57;57.60;;;6.40;99.90;;;;;;4858591;28;91826;-32
2023/04/10 01:50:08;;;;;;;83.35;61.35;;;6.40;99.90;;;;;;4860622;28;89695;-33
2023/04/10 01:52:35;;;;;;;82.60;60.65;;;6.40;99.90;;;;;;4883920;28;89292;-33
2023/04/10 01:55:03;;;;;;;78.20;61.40;;;6.40;99.90;;;;;;4871141;28;89316;-33
2023/04/10 01:57:30;;;;;;;76.47;56.42;;;6.40;99.90;;;;;;4883571;28;90219;-34
2023/04/10 01:59:56;;;;;;;84.22;63.35;;;6.40;99.90;;;;;;4882239;28;90168;-35
2023/04/10 02:02:22;;;;;;;75.15;58.10;;;6.40;99.90;;;;;;4875175;28;88169;-33
2023/04/10 02:04:50;;;;;;;76.20;59.35;;;6.30;99.90;;;;;;4864068;28;88909;-33
2023/04/10 02:07:22;;;;;;;77.75;57.03;;;6.40;99.90;;;;;;4864631;28;90844;-34
2023/04/10 02:09:51;;;;;;;76.65;57.60;;;6.40;99.90;;;;;;4864594;28;88657;-35
2023/04/10 02:13:06;;;;;;;76.03;58.22;;;6.40;99.90;;;;;;4865343;28;88928;-35
2023/04/10 02:15:33;;;;;;;77.47;58.35;;;6.30;99.90;;;;;;4852528;28;88740;-34
2023/04/10 02:18:03;;;;;;;75.97;56.30;;;6.20;99.90;;;;;;4864582;28;89830;-35
2023/04/10 02:20:30;;;;;;;76.40;53.25;;;6.20;99.90;;;;;;4864732;28;88162;-36
2023/04/10 02:22:58;;;;;;;72.50;56.57;;;6.30;99.90;;;;;;4869441;28;88284;-33
2023/04/10 02:25:25;;;;;;;72.03;54.20;;;6.20;99.90;;;;;;4883856;28;87794;-35
2023/04/10 02:27:50;;;;;;;73.55;56.40;;;6.20;99.90;;;;;;4881902;28;90565;-32
2023/04/10 02:30:16;;;;;;;70.13;54.97;;;6.30;99.90;;;;;;4883459;28;89520;-31
2023/04/10 02:32:41;;;;;;;70.95;52.65;;;6.20;99.90;;;;;;4883424;28;89286;-32
2023/04/10 02:35:07;;;;;;;72.93;54.10;;;6.20;99.90;;;;;;4872448;28;88466;-34
2023/04/10 02:37:34;;;;;;;71.22;55.33;;;6.20;99.90;;;;;;4869211;28;90073;-34
2023/04/10 02:40:00;;;;;;;69.75;54.97;;;6.20;99.90;;;;;;4870773;28;89387;-34
2023/04/10 02:42:26;;;;;;;64.63;54.05;;;6.20;99.90;;;;;;4877009;28;89441;-33
2023/04/10 02:44:51;;;;;;;71.43;53.38;;;6.20;99.90;;;;;;4864755;28;88049;-31
2023/04/10 02:47:17;;;;;;;67.72;51.58;;;6.20;99.90;;;;;;4864348;28;89907;-34
2023/04/10 02:49:43;;;;;;;77.95;55.75;;;6.20;99.90;;;;;;4875730;28;88355;-33
2023/04/10 02:52:09;;;;;;;63.28;53.13;;;6.20;99.90;;;;;;4869692;28;89590;-32
2023/04/10 02:54:34;;;;;;;71.47;52.60;;;6.20;99.90;;;;;;4883705;28;87643;-32
2023/04/10 02:57:00;;;;;;;67.90;52.95;;;6.10;99.90;;;;;;4882478;28;88487;-33
2023/04/10 02:59:26;;;;;;;60.90;49.50;;;6.10;99.90;;;;;;4882804;28;89204;-33
2023/04/10 03:01:52;;;;;;;65.82;51.83;;;6.10;99.90;;;;;;4865577;28;89018;-33
2023/04/10 03:04:18;;;;;;;66.32;48.97;;;6.10;99.90;;;;;;4881252;28;88337;-33
2023/04/10 03:06:44;;;;;;;65.57;50.83;;;6.10;99.90;;;;;;4865572;28;90305;-33
2023/04/10 03:09:10;;;;;;;64.38;52.42;;;6.10;99.90;;;;;;4864842;28;89479;-34
2023/04/10 03:11:35;;;;;;;68.15;49.70;;;6.10;99.90;;;;;;4864110;28;90089;-35
2023/04/10 03:14:01;;;;;;;66.97;50.78;;;6.00;99.90;;;;;;4863671;28;89532;-32
2023/04/10 03:16:26;;;;;;;68.00;52.78;;;6.00;99.90;;;;;;4863500;28;90633;-31
2023/04/10 03:18:52;;;;;;;70.68;53.38;;;6.00;99.90;;;;;;4864395;28;89926;-35
2023/04/10 03:21:18;;;;;;;68.80;51.10;;;6.00;99.90;;;;;;4864851;28;89108;-34
2023/04/10 03:23:44;;;;;;;68.03;53.50;;;6.00;99.90;;;;;;4874951;28;88262;-33
2023/04/10 03:26:10;;;;;;;61.97;48.58;;;6.00;99.90;;;;;;4869941;28;91248;-31
2023/04/10 03:28:35;;;;;;;67.97;48.47;;;5.90;99.90;;;;;;4882307;28;89203;-32
2023/04/10 03:31:02;;;;;;;65.03;49.50;;;5.90;99.90;;;;;;4881674;28;88007;-33
2023/04/10 03:33:28;;;;;;;66.07;50.45;;;5.90;99.90;;;;;;4882818;28;87727;-32
2023/04/10 03:35:54;;;;;;;61.95;49.70;;;5.90;99.90;;;;;;4881159;28;89993;-36
2023/04/10 03:38:20;;;;;;;64.55;47.92;;;5.90;99.90;;;;;;4882484;28;89951;-32
2023/04/10 03:40:45;;;;;;;65.38;48.30;;;5.90;99.90;;;;;;4880870;28;89009;-32
2023/04/10 03:43:11;;;;;;;63.78;52.38;;;5.90;99.90;;;;;;4882126;28;88655;-36
2023/04/10 03:45:36;;;;;;;63.60;48.90;;;5.90;99.90;;;;;;4881303;28;90074;-33
2023/04/10 03:48:02;;;;;;;69.15;51.05;;;5.90;99.90;;;;;;4881590;28;89985;-35
2023/04/10 03:50:28;;;;;;;66.93;48.00;;;5.90;99.90;;;;;;4881227;28;89995;-33
2023/04/10 03:52:53;;;;;;;64.93;50.85;;;5.90;99.90;;;;;;4881565;28;88565;-34
2023/04/10 03:55:19;;;;;;;67.53;50.08;;;5.90;99.90;;;;;;4877667;28;90408;-32
2023/04/10 03:57:46;;;;;;;62.78;49.17;;;6.00;99.90;;;;;;4873169;28;89741;-33
2023/04/10 04:00:15;;;;;;;65.35;48.72;;;6.00;99.90;;;;;;4865406;28;89402;-34
2023/04/10 04:02:41;;;;;;;66.65;49.30;;;6.00;99.90;;;;;;4863755;28;89634;-36
2023/04/10 04:05:08;;;;;;;61.65;49.33;;;5.90;99.90;;;;;;4867956;28;90889;-33
2023/04/10 04:07:33;;;;;;;65.80;46.90;;;6.00;99.90;;;;;;4870981;28;89582;-33
2023/04/10 04:09:59;;;;;;;71.97;52.13;;;6.00;99.90;;;;;;4863157;28;90182;-33
2023/04/10 04:12:25;;;;;;;58.47;48.92;;;5.90;99.90;;;;;;4863222;28;88533;-35
2023/04/10 04:14:51;;;;;;;72.85;53.03;;;6.00;99.90;;;;;;4881991;28;90203;-32
2023/04/10 04:17:17;;;;;;;69.15;48.85;;;6.00;99.90;;;;;;4874949;28;89388;-31
2023/04/10 04:19:42;;;;;;;69.03;51.80;;;6.00;99.90;;;;;;4883595;28;88880;-31
2023/04/10 04:22:08;;;;;;;63.20;48.95;;;6.00;99.90;;;;;;4885209;28;88895;-33
2023/04/10 04:24:34;;;;;;;70.88;50.38;;;5.90;99.90;;;;;;4884213;28;90578;-33
2023/04/10 04:27:00;;;;;;;66.97;47.83;;;5.90;99.90;;;;;;4885209;28;89561;-36
2023/04/10 04:29:25;;;;;;;68.53;51.17;;;5.90;99.90;;;;;;4884151;28;89518;-33
2023/04/10 04:31:51;;;;;;;71.25;53.92;;;5.90;99.90;;;;;;4884923;28;87658;-34
2023/04/10 04:34:17;;;;;;;63.65;50.90;;;5.90;99.90;;;;;;4884474;28;90441;-31
2023/04/10 04:36:42;;;;;;;66.47;51.55;;;5.90;99.90;;;;;;4884556;28;89586;-35
2023/04/10 04:39:08;;;;;;;83.63;56.85;;;5.80;99.90;;;;;;4880236;28;88975;-35
2023/04/10 04:41:34;;;;;;;62.45;51.63;;;5.90;99.90;;;;;;4859386;28;88720;-35
2023/04/10 04:44:01;;;;;;;73.95;53.85;;;5.80;99.90;;;;;;4879892;28;89567;-33
2023/04/10 04:46:27;;;;;;;71.47;52.05;;;5.80;99.90;;;;;;4877433;28;89831;-32
2023/04/10 04:48:52;;;;;;;62.83;52.13;;;5.80;99.90;;;;;;4883154;28;90016;-32
2023/04/10 04:51:18;;;;;;;67.97;50.03;;;5.80;99.90;;;;;;4884089;28;89371;-37
2023/04/10 04:53:44;;;;;;;73.45;57.15;;;5.80;99.90;;;;;;4882782;28;90032;-32
2023/04/10 04:56:09;;;;;;;71.63;53.20;;;5.80;99.90;;;;;;4883937;28;90028;-35
2023/04/10 04:58:35;;;;;;;80.45;53.10;;;5.80;99.90;;;;;;4883338;28;90184;-31
2023/04/10 05:01:01;;;;;;;77.90;53.38;;;5.70;99.90;;;;;;4883973;28;89359;-30
2023/04/10 05:03:29;;;;;;;72.30;51.33;;;5.80;99.90;;;;;;4883636;28;90313;-35
2023/04/10 05:05:56;;;;;;;71.40;55.33;;;5.70;99.90;;;;;;4884780;28;89887;-35
2023/04/10 05:08:21;;;;;;;76.32;56.55;;;5.70;99.90;;;;;;4883952;28;89989;-35
2023/04/10 05:10:47;;;;;;;78.20;58.47;;;5.70;99.90;;;;;;4883595;28;89701;-36
2023/04/10 05:13:14;;;;;;;73.78;57.40;;;5.70;99.90;;;;;;4882635;28;90305;-32
2023/04/10 05:15:40;;;;;;;70.70;55.63;;;5.80;99.90;;;;;;4882702;28;89289;-35
2023/04/10 05:18:05;;;;;;;87.82;62.55;;;5.80;99.90;;;;;;4883086;28;90003;-35
2023/04/10 05:20:34;;;;;;;82.38;60.47;;;5.90;99.90;;;;;;4883526;28;87600;-36
2023/04/10 05:23:00;;;;;;;81.40;59.20;;;5.90;99.90;;;;;;4881326;28;90619;-32
2023/04/10 05:25:26;;;;;;;79.35;57.97;;;6.00;99.90;;;;;;4872296;28;89252;-32
2023/04/10 05:27:51;;;;;;;86.57;60.42;;;6.00;99.90;;;;;;4865277;28;89938;-32
2023/04/10 05:30:17;;;;;;;89.47;62.13;;;6.10;99.90;;;;;;4877154;28;90508;-36
2023/04/10 05:32:44;;;;;;;76.43;58.72;;;6.10;99.90;;;;;;4866080;28;90446;-31
2023/04/10 05:35:10;;;;;;;80.05;62.58;;;6.10;99.90;;;;;;4883274;28;89723;-35
2023/04/10 05:37:36;;;;;;;84.07;61.83;;;6.20;99.90;;;;;;4884121;28;89339;-34
2023/04/10 05:40:02;;;;;;;89.53;62.42;;;6.30;99.90;;;;;;4883977;28;87979;-34
2023/04/10 05:42:28;;;;;;;85.45;60.03;;;6.30;99.90;;;;;;4883457;28;91052;-32
2023/04/10 05:44:53;;;;;;;81.57;60.33;;;6.40;99.90;;;;;;4883978;28;89055;-32
2023/04/10 05:47:19;;;;;;;81.18;60.50;;;6.40;99.90;;;;;;4865864;28;89999;-31
2023/04/10 05:49:44;;;;;;;85.72;60.33;;;6.50;99.90;;;;;;4865088;28;88694;-37
2023/04/10 05:52:10;;;;;;;78.45;58.28;;;6.60;99.90;;;;;;4864713;28;90085;-33
2023/04/10 05:54:36;;;;;;;82.57;59.50;;;6.70;99.90;;;;;;4865624;28;88211;-37
2023/04/10 05:57:01;;;;;;;76.45;58.35;;;6.70;99.90;;;;;;4865230;28;87636;-33
2023/04/10 05:59:27;;;;;;;81.63;60.22;;;6.80;99.90;;;;;;4865099;28;90004;-31
2023/04/10 06:01:52;;;;;;;83.50;58.20;;;6.90;99.90;;;;;;4865156;28;90175;-32
2023/04/10 06:04:20;;;;;;;73.93;58.65;;;7.00;99.90;;;;;;4864339;28;90709;-31
2023/04/10 06:06:45;;;;;;;73.38;56.80;;;7.00;99.90;;;;;;4864334;28;89821;-34
2023/04/10 06:09:11;;;;;;;77.78;56.55;;;7.10;99.90;;;;;;4865098;28;88134;-31
2023/04/10 06:11:37;;;;;;;77.03;56.35;;;7.20;99.90;;;;;;4864174;28;90545;-33
2023/04/10 06:14:02;;;;;;;80.25;57.58;;;7.20;99.90;;;;;;4864520;28;90126;-34
2023/04/10 06:16:28;;;;;;;79.55;55.78;;;7.30;99.90;;;;;;4864093;28;89329;-37
2023/04/10 06:18:54;;;;;;;79.68;55.63;;;7.30;99.90;;;;;;4863881;28;88923;-34
2023/04/10 06:21:19;;;;;;;82.82;57.92;;;7.40;99.90;;;;;;4864902;28;89431;-31
2023/04/10 06:23:45;;;;;;;79.30;56.92;;;7.40;99.90;;;;;;4875671;28;89950;-31
2023/04/10 06:26:11;;;;;;;77.20;57.08;;;7.50;99.90;;;;;;4866402;28;88538;-32
2023/04/10 06:28:37;;;;;;;81.70;58.05;;;7.60;99.90;;;;;;4864566;28;89312;-33
2023/04/10 06:31:04;;;;;;;78.20;59.55;;;7.70;99.90;;;;;;4880672;28;90278;-36
2023/04/10 06:33:30;;;;;;;78.83;54.87;;;7.80;99.90;;;;;;4874099;28;90329;-34
2023/04/10 06:35:57;;;;;;;74.05;54.45;;;7.90;99.90;;;;;;4871635;28;87653;-34
2023/04/10 06:38:23;;;;;;;71.30;54.95;;;8.00;99.90;;;;;;4871006;28;88534;-32
2023/04/10 06:40:49;;;;;;;71.80;54.33;;;8.10;99.90;;;;;;4868863;28;90414;-33
2023/04/10 06:43:14;;;;;;;69.97;48.47;;;8.20;99.90;;;;;;4865359;28;90250;-32
2023/04/10 06:45:40;;;;;;;67.43;50.60;;;8.40;99.90;;;;;;4864898;28;89868;-31
2023/04/10 06:48:06;;;;;;;65.15;46.50;;;8.60;99.90;;;;;;4866183;28;89687;-33
2023/04/10 06:50:31;;;;;;;66.05;46.50;;;8.70;99.90;;;;;;4866960;28;90399;-35
2023/04/10 06:52:58;;;;;;;63.75;46.20;;;8.90;99.90;;;;;;4864983;28;89611;-33
2023/04/10 06:55:25;;;;;;;66.40;45.08;;;9.00;99.90;;;;;;4866450;28;88855;-32
2023/04/10 06:57:51;;;;;;;53.88;41.65;;;9.20;99.90;;;;;;4866063;28;88787;-35
2023/04/10 07:00:18;;;;;;;52.20;40.47;;;9.30;99.90;;;;;;4866402;28;90186;-35
2023/04/10 07:02:44;;;;;;;58.63;44.03;;;9.40;99.90;;;;;;4865010;28;90058;-32
2023/04/10 07:05:10;;;;;;;57.75;42.78;;;9.60;99.90;;;;;;4866625;28;88284;-34
2023/04/10 07:07:36;;;;;;;57.05;39.00;;;9.70;99.90;;;;;;4865493;28;89213;-33
2023/04/10 07:10:02;;;;;;;54.72;40.72;;;9.80;99.90;;;;;;4864593;28;90607;-35
2023/04/10 07:12:28;;;;;;;52.05;39.50;;;9.80;99.90;;;;;;4864959;28;89592;-31
2023/04/10 07:14:54;;;;;;;50.72;37.60;;;9.90;99.90;;;;;;4865247;28;87673;-33
2023/04/10 07:17:20;;;;;;;56.22;37.38;;;9.90;99.90;;;;;;4865123;28;88673;-32
2023/04/10 07:19:46;;;;;;;52.60;38.17;;;10.00;99.90;;;;;;4865837;28;90022;-33
2023/04/10 07:22:12;;;;;;;50.47;34.75;;;10.00;99.90;;;;;;4847992;28;90338;-33
2023/04/10 07:24:37;;;;;;;51.78;37.90;;;10.00;99.90;;;;;;4876128;28;87528;-34
2023/04/10 07:27:03;;;;;;;46.38;35.45;;;10.00;99.90;;;;;;4863003;28;87620;-34
2023/04/10 07:29:29;;;;;;;45.90;36.38;;;10.10;99.90;;;;;;4863316;28;89588;-31
2023/04/10 07:31:55;;;;;;;50.00;38.65;;;10.20;99.90;;;;;;4863840;28;90770;-32
2023/04/10 07:34:21;;;;;;;55.20;39.08;;;10.30;99.90;;;;;;4863827;28;88486;-32
2023/04/10 07:36:47;;;;;;;55.88;38.22;;;10.30;99.90;;;;;;4863476;28;87561;-32
2023/04/10 07:39:12;;;;;;;47.78;33.97;;;10.40;99.90;;;;;;4875786;28;89774;-33
2023/04/10 07:41:39;;;;;;;51.60;36.75;;;10.50;99.90;;;;;;4869400;28;90481;-33
2023/04/10 07:44:04;;;;;;;47.28;34.95;;;10.60;99.90;;;;;;4875880;28;89383;-33
2023/04/10 07:46:30;;;;;;;48.22;34.55;;;10.70;99.90;;;;;;4863011;28;87590;-34
2023/04/10 07:48:56;;;;;;;43.33;34.10;;;10.80;99.90;;;;;;4862403;28;89806;-31
2023/04/10 07:51:22;;;;;;;45.72;31.95;;;11.00;99.90;;;;;;4873518;28;89364;-33
2023/04/10 07:53:47;;;;;;;42.72;32.30;;;11.10;99.90;;;;;;4881030;28;87931;-33
2023/04/10 07:56:17;;;;;;;46.78;32.85;;;11.30;99.90;;;;;;4881893;28;90085;-31
2023/04/10 07:58:45;;;;;;;40.20;29.40;;;11.50;99.90;;;;;;4879349;28;89044;-34
2023/04/10 08:01:10;;;;;;;42.65;31.52;;;11.80;99.90;;;;;;4873216;28;89309;-34
2023/04/10 08:03:44;;;;;;;37.85;28.05;;;12.10;99.90;;;;;;4867076;28;88849;-32
2023/04/10 08:06:10;;;;;;;37.55;29.17;;;12.30;90.40;;;;;;4874861;28;88560;-36
2023/04/10 08:08:37;;;;;;;46.42;29.98;;;12.40;90.20;;;;;;4881896;28;88921;-35
2023/04/10 08:11:21;;;;;;;39.58;28.15;;;12.50;91.60;;;;;;4880244;28;89450;-32
2023/04/10 08:13:48;;;;;;;35.25;27.70;;;12.60;89.30;;;;;;4870690;28;89419;-33
2023/04/10 08:16:13;;;;;;;36.38;27.90;;;12.90;80.80;;;;;;4849224;28;88883;-32
2023/04/10 08:18:39;;;;;;;37.70;27.65;;;13.10;79.00;;;;;;4862196;28;91927;-32
2023/04/10 08:21:05;;;;;;;50.00;27.70;;;13.30;78.00;;;;;;4866221;28;89896;-31
2023/04/10 08:23:30;;;;;;;30.88;24.95;;;13.30;77.40;;;;;;4862376;28;87626;-31
2023/04/10 08:25:56;;;;;;;38.85;26.98;;;13.60;78.60;;;;;;4866949;28;90015;-33
2023/04/10 08:28:22;;;;;;;35.40;28.05;;;13.70;76.00;;;;;;4863168;28;90576;-34
2023/04/10 08:30:47;;;;;;;41.25;31.38;;;13.70;77.40;;;;;;4872389;28;88572;-33
2023/04/10 08:33:13;;;;;;;39.35;29.50;;;13.50;74.80;;;;;;4871104;28;87950;-35
2023/04/10 08:35:39;;;;;;;38.08;27.45;;;13.70;76.80;;;;;;4856271;28;89523;-32
2023/04/10 08:38:05;;;;;;;36.35;28.35;;;13.80;73.90;;;;;;4876875;28;90118;-35
2023/04/10 08:40:30;;;;;;;37.05;29.88;;;13.90;74.20;;;;;;4871956;28;89582;-34
2023/04/10 08:42:56;;;;;;;36.88;27.05;;;13.90;74.00;;;;;;4876724;28;89091;-34
2023/04/10 08:45:21;;;;;;;39.92;29.20;;;13.90;73.70;;;;;;4872361;28;89227;-34
2023/04/10 08:47:50;;;;;;;36.13;27.55;;;13.90;72.00;;;;;;4868284;28;90352;-36
2023/04/10 08:50:17;;;;;;;41.08;29.23;;;14.10;74.40;;;;;;4865071;28;89777;-34
2023/04/10 08:52:45;;;;;;;48.33;27.50;;;14.00;72.70;;;;;;4877001;28;89181;-34
2023/04/10 08:55:12;;;;;;;41.25;30.00;;;13.90;73.00;;;;;;4874361;28;88361;-34
2023/04/10 08:57:39;;;;;;;36.50;29.00;;;14.10;75.20;;;;;;4877131;28;90203;-34
2023/04/10 09:00:06;;;;;;;36.20;30.60;;;14.00;73.30;;;;;;4873072;28;88739;-33
2023/04/10 09:02:31;;;;;;;38.13;30.40;;;14.20;74.90;;;;;;4878972;28;88487;-34
2023/04/10 09:04:59;;;;;;;32.70;28.35;;;14.40;74.80;;;;;;4877163;28;89817;-32
2023/04/10 09:07:26;;;;;;;41.80;32.43;;;14.40;74.40;;;;;;4862548;28;89985;-32
2023/04/10 09:09:51;;;;;;;36.13;26.35;;;14.40;72.90;;;;;;4855283;28;88990;-32
2023/04/10 09:12:17;;;;;;;31.20;27.45;;;14.30;73.50;;;;;;4855877;28;88064;-35
2023/04/10 09:14:43;;;;;;;35.92;29.83;;;14.40;73.00;;;;;;4869057;28;88267;-34
2023/04/10 09:17:22;;;;;;;34.50;27.30;;;14.50;73.00;;;;;;4870325;28;89860;-33
2023/04/10 09:19:53;;;;;;;65.53;27.98;;;14.60;72.10;;;;;;4872629;28;90523;-34
2023/04/10 09:22:29;;;;;;;32.00;23.08;;;14.70;72.30;;;;;;4869454;28;88084;-34
2023/04/10 09:24:55;;;;;;;31.05;25.92;;;14.90;70.70;;;;;;4852081;28;89198;-31
2023/04/10 09:27:34;;;;;;;32.97;25.17;;;15.10;72.40;;;;;;4864433;28;90310;-31
2023/04/10 09:30:00;;;;;;;32.78;24.05;;;15.20;72.00;;;;;;4864092;28;89493;-34
2023/04/10 09:32:41;;;;;;;29.20;24.42;;;15.20;69.70;;;;;;4865495;28;87666;-31
2023/04/10 09:35:08;;;;;;;30.30;23.75;;;15.20;69.40;;;;;;4865099;28;89629;-31
2023/04/10 09:37:38;;;;;;;33.92;23.70;;;15.30;70.20;;;;;;4865129;28;90623;-34
2023/04/10 09:40:04;;;;;;;27.55;21.35;;;15.40;68.50;;;;;;4864092;28;90009;-33
2023/04/10 09:42:36;;;;;;;27.23;19.92;;;15.50;69.10;;;;;;4870826;28;88333;-32
2023/04/10 09:45:03;;;;;;;29.88;21.13;;;15.50;68.30;;;;;;4882941;28;90116;-34
2023/04/10 09:47:30;;;;;;;25.35;19.80;;;15.30;67.90;;;;;;4865195;28;89899;-34
2023/04/10 09:49:59;;;;;;;28.30;22.00;;;15.20;69.00;;;;;;4865189;28;89644;-31
2023/04/10 09:52:34;;;;;;;25.35;21.00;;;15.40;69.30;;;;;;4882543;28;88489;-35
2023/04/10 09:55:04;;;;;;;27.17;21.48;;;15.40;68.60;;;;;;4882869;28;89898;-33
2023/04/10 09:57:32;;;;;;;25.63;20.65;;;15.40;68.80;;;;;;4882486;28;90855;-33
2023/04/10 10:00:07;;;;;;;24.15;20.23;;;15.50;70.40;;;;;;4879335;28;89270;-36
2023/04/10 10:02:37;;;;;;;27.13;20.60;;;15.50;69.90;;;;;;4874233;28;90026;-34
2023/04/10 10:05:04;;;;;;;22.77;19.23;;;15.50;68.70;;;;;;4876564;28;89906;-34
2023/04/10 10:07:30;;;;;;;22.20;17.98;;;15.60;67.90;;;;;;4875559;28;89299;-35
2023/04/10 10:09:57;;;;;;;19.98;17.88;;;15.60;69.00;;;;;;4881372;28;89538;-35
2023/04/10 10:12:33;;;;;;;20.33;16.42;;;15.60;67.90;;;;;;4883039;28;89574;-32
2023/04/10 10:15:56;;;;;;;18.05;15.65;;;15.70;67.20;;;;;;4877058;28;90271;-33
2023/04/10 10:18:30;;;;;;;19.88;15.43;;;15.90;67.30;;;;;;4812105;29;90262;-35
2023/04/10 10:20:57;;;;;;;18.67;15.15;;;16.00;66.60;;;;;;4819484;29;90428;-32
2023/04/10 10:23:24;;;;;;;19.60;15.30;;;16.10;64.80;;;;;;4843708;28;87750;-33
2023/04/10 10:25:52;;;;;;;21.20;14.38;;;16.10;65.30;;;;;;4881797;28;89642;-35
2023/04/10 10:28:18;;;;;;;22.92;15.18;;;16.20;65.60;;;;;;4881944;28;90139;-36
2023/04/10 10:30:45;;;;;;;17.85;12.65;;;16.40;66.90;;;;;;4854417;28;89551;-33
2023/04/10 10:33:12;;;;;;;17.35;13.68;;;16.20;64.40;;;;;;4854311;28;87991;-32
2023/04/10 10:35:39;;;;;;;14.70;12.93;;;16.30;65.10;;;;;;4864477;28;87644;-35
2023/04/10 10:38:05;;;;;;;20.23;13.48;;;16.50;65.30;;;;;;4863685;28;89845;-32
2023/04/10 10:40:44;;;;;;;21.50;13.65;;;16.40;64.90;;;;;;4862515;28;89752;-33
2023/04/10 10:43:28;;;;;;;15.00;13.15;;;16.30;65.30;;;;;;4858060;28;88504;-32
2023/04/10 10:46:04;;;;;;;15.68;12.52;;;16.40;63.80;;;;;;4867662;28;88406;-34
2023/04/10 10:48:29;;;;;;;21.52;13.43;;;16.50;64.00;;;;;;4881247;28;90539;-35
2023/04/10 10:51:00;;;;;;;13.45;11.48;;;16.50;64.60;;;;;;4862894;28;89312;-35
2023/04/10 10:53:41;;;;;;;16.02;12.93;;;16.40;64.40;;;;;;4863837;28;88346;-34
2023/04/10 10:56:22;;;;;;;17.08;12.45;;;16.30;64.00;;;;;;4847235;28;89683;-34
2023/04/10 10:58:49;;;;;;;15.95;12.23;;;16.40;65.00;;;;;;4868293;28;90328;-35
2023/04/10 11:01:15;;;;;;;13.23;11.27;;;16.40;64.50;;;;;;4882488;28;89663;-34
2023/04/10 11:03:43;;;;;;;20.08;10.93;;;16.40;63.60;;;;;;4868616;28;89384;-34
2023/04/10 11:06:11;;;;;;;12.93;11.10;;;16.50;65.00;;;;;;4881962;28;90288;-32
2023/04/10 11:08:42;;;;;;;45.20;14.75;;;16.40;64.30;;;;;;4850022;28;90105;-36
2023/04/10 11:11:16;;;;;;;15.10;10.73;;;16.30;63.90;;;;;;4862429;28;89261;-35
2023/04/10 11:14:05;;;;;;;40.00;12.65;;;16.20;65.30;;;;;;4863606;28;88944;-35
2023/04/10 11:16:34;;;;;;;13.43;10.60;;;16.40;64.40;;;;;;4859241;28;87781;-32
2023/04/10 11:19:07;;;;;;;12.30;9.30;;;16.40;64.60;;;;;;4863532;28;90905;-32
2023/04/10 11:21:34;;;;;;;13.52;10.18;;;16.60;66.40;;;;;;4851257;28;88724;-32
2023/04/10 11:24:00;;;;;;;10.32;9.07;;;16.50;64.50;;;;;;4875036;28;87549;-33
2023/04/10 11:26:38;;;;;;;11.48;9.77;;;16.50;66.00;;;;;;4869903;28;90152;-32
2023/04/10 11:29:16;;;;;;;21.92;9.35;;;16.60;65.00;;;;;;4880281;28;90338;-28
2023/04/10 11:31:43;;;;;;;8.98;7.93;;;16.50;64.30;;;;;;4872875;28;89288;-30
2023/04/10 11:34:09;;;;;;;12.35;9.45;;;16.50;65.30;;;;;;4869824;28;87892;-35
2023/04/10 11:36:40;;;;;;;19.60;9.90;;;16.60;64.80;;;;;;4865864;28;88433;-35
2023/04/10 11:39:07;;;;;;;36.20;10.25;;;16.60;64.10;;;;;;4866751;28;91082;-33
2023/04/10 11:41:44;;;;;;;8.68;7.63;;;16.40;63.50;;;;;;4860128;28;89940;-34
2023/04/10 11:44:15;;;;;;;15.40;8.43;;;16.50;63.90;;;;;;4873792;28;87909;-32
2023/04/10 11:46:43;;;;;;;7.43;6.43;;;16.50;63.50;;;;;;4865073;28;89838;-35
2023/04/10 11:49:09;;;;;;;9.13;6.73;;;16.60;64.20;;;;;;4873929;28;89849;-33
2023/04/10 11:51:36;;;;;;;6.78;6.07;;;16.70;65.60;;;;;;4879211;28;90077;-31
2023/04/10 11:54:07;;;;;;;10.98;7.75;;;16.70;64.30;;;;;;4862397;28;88199;-33
2023/04/10 11:56:34;;;;;;;12.88;7.63;;;16.80;64.10;;;;;;4870471;28;89360;-34
2023/04/10 11:59:01;;;;;;;8.57;6.43;;;16.80;63.50;;;;;;4875784;28;89837;-33
2023/04/10 12:01:27;;;;;;;18.65;6.50;;;16.70;62.80;;;;;;4868608;28;90279;-36
2023/04/10 12:03:53;;;;;;;5.95;5.40;;;16.70;62.10;;;;;;4912211;23;90174;-32
2023/04/10 12:06:19;;;;;;;6.07;5.47;;;16.60;62.70;;;;;;4900711;28;88306;-35
2023/04/10 12:08:48;;;;;;;6.60;5.90;;;16.60;62.00;;;;;;4896933;28;90211;-36
2023/04/10 12:11:16;;;;;;;;;;;16.70;61.90;;;;;;4897248;28;89190;-35
2023/04/10 12:13:41;;;;;;;;;;;16.80;61.70;;;;;;4898999;28;90207;-34
2023/04/10 12:16:08;;;;;;;35.83;9.98;;;16.90;62.10;;;;;;4903004;28;89659;-35
2023/04/10 12:18:34;;;;;;;5.90;4.88;;;17.10;62.80;;;;;;4900800;28;91145;-32
2023/04/10 12:21:01;;;;;;;4.80;4.40;;;17.20;62.60;;;;;;4900073;28;90356;-32
2023/04/10 12:23:29;;;;;;;6.18;4.97;;;17.40;62.70;;;;;;4901691;28;89124;-31
2023/04/10 12:26:15;;;;;;;53.20;8.82;;;17.30;61.20;;;;;;4900661;28;89530;-35
2023/04/10 12:28:52;;;;;;;38.83;10.48;;;17.40;61.30;;;;;;4901229;28;89629;-34
2023/04/10 12:31:18;;;;;;;7.32;6.57;;;17.30;61.70;;;;;;4900547;28;89681;-32
2023/04/10 12:33:45;;;;;;;7.25;6.53;;;17.40;63.10;;;;;;4899772;28;88087;-31
2023/04/10 12:36:21;;;;;;;7.27;5.00;;;17.50;63.00;;;;;;4892001;28;88951;-34
2023/04/10 12:38:47;;;;;;;6.20;5.60;;;17.60;63.60;;;;;;4903804;28;90329;-34
2023/04/10 12:41:19;;;;;;;6.40;5.75;;;17.60;61.60;;;;;;4904122;28;88859;-33